createdAt,value
2023-03-04T00:00:15.475Z,60.04
2023-03-04T00:02:41.870Z,59.85
2023-03-04T00:05:08.256Z,58.06
2023-03-04T00:07:34.615Z,57.07
2023-03-04T00:10:00.964Z,57.72
2023-03-04T00:12:27.349Z,53.82
2023-03-04T00:14:53.712Z,51.68
2023-03-04T00:17:20.105Z,55.66
2023-03-04T00:19:46.553Z,54.57
2023-03-04T00:22:12.916Z,55.50
2023-03-04T00:24:39.303Z,54.70
2023-03-04T00:27:05.678Z,55.15
2023-03-04T00:29:32.029Z,53.85
2023-03-04T00:31:58.535Z,57.09
2023-03-04T00:34:24.998Z,57.64
2023-03-04T00:36:51.358Z,57.73
2023-03-04T00:39:17.756Z,58.08
2023-03-04T00:41:44.171Z,56.86
2023-03-04T00:44:10.539Z,59.21
2023-03-04T00:46:36.938Z,59.34
2023-03-04T00:49:03.354Z,57.43
2023-03-04T00:51:29.719Z,57.58
2023-03-04T00:53:56.070Z,57.42
2023-03-04T00:56:22.418Z,57.80
2023-03-04T00:58:48.818Z,56.49
2023-03-04T01:01:15.254Z,58.13
2023-03-04T01:03:41.675Z,58.40
2023-03-04T01:06:08.045Z,55.69
2023-03-04T01:08:34.434Z,56.40
2023-03-04T01:11:00.838Z,56.25
2023-03-04T01:13:27.195Z,57.04
2023-03-04T01:15:53.558Z,55.82
2023-03-04T01:18:19.966Z,56.86
2023-03-04T01:20:46.358Z,59.11
2023-03-04T01:23:12.736Z,58.90
2023-03-04T01:25:39.132Z,57.70
2023-03-04T01:28:05.486Z,57.83
2023-03-04T01:30:31.915Z,57.37
2023-03-04T01:32:58.272Z,58.74
2023-03-04T01:35:24.699Z,59.33
2023-03-04T01:37:51.115Z,59.52
2023-03-04T01:40:17.510Z,59.57
2023-03-04T01:42:43.897Z,58.91
2023-03-04T01:45:10.275Z,59.75
2023-03-04T01:47:36.647Z,60.26
2023-03-04T01:50:03.040Z,60.38
2023-03-04T01:52:29.464Z,59.87
2023-03-04T01:54:55.880Z,60.09
2023-03-04T01:57:22.284Z,60.60
2023-03-04T01:59:48.661Z,60.24
2023-03-04T02:02:15.054Z,61.47
2023-03-04T02:04:41.482Z,61.45
2023-03-04T02:07:07.860Z,62.64
2023-03-04T02:09:34.228Z,62.99
2023-03-04T02:12:00.626Z,63.22
2023-03-04T02:14:26.984Z,63.31
2023-03-04T02:16:53.335Z,63.34
2023-03-04T02:19:19.728Z,63.16
2023-03-04T02:21:46.092Z,62.48
2023-03-04T02:24:12.532Z,62.61
2023-03-04T02:26:38.888Z,63.88
2023-03-04T02:29:05.298Z,63.70
2023-03-04T02:31:31.767Z,63.06
2023-03-04T02:33:58.176Z,63.13
2023-03-04T02:36:24.540Z,61.82
2023-03-04T02:38:50.894Z,64.69
2023-03-04T02:41:17.663Z,64.76
2023-03-04T02:43:44.032Z,63.59
2023-03-04T02:46:10.430Z,64.04
2023-03-04T02:48:36.820Z,63.32
2023-03-04T02:51:03.174Z,63.82
2023-03-04T02:53:29.566Z,63.34
2023-03-04T02:55:55.964Z,63.90
2023-03-04T02:58:22.391Z,62.70
2023-03-04T03:00:48.774Z,63.05
2023-03-04T03:03:15.191Z,62.73
2023-03-04T03:05:41.593Z,62.88
2023-03-04T03:08:07.953Z,63.91
2023-03-04T03:10:34.367Z,61.68
2023-03-04T03:13:00.765Z,63.57
2023-03-04T03:15:27.131Z,62.45
2023-03-04T03:17:53.529Z,62.32
2023-03-04T03:20:19.910Z,63.97
2023-03-04T03:22:46.302Z,63.93
2023-03-04T03:25:12.707Z,62.92
2023-03-04T03:27:39.110Z,62.60
2023-03-04T03:30:05.524Z,63.66
2023-03-04T03:32:32.022Z,63.41
2023-03-04T03:34:58.481Z,62.69
2023-03-04T03:37:24.846Z,63.62
2023-03-04T03:39:51.237Z,63.24
2023-03-04T03:42:17.639Z,62.97
2023-03-04T03:44:43.998Z,62.49
2023-03-04T03:47:10.394Z,61.33
2023-03-04T03:49:36.753Z,61.34
2023-03-04T03:52:03.107Z,61.87
2023-03-04T03:54:29.456Z,62.21
2023-03-04T03:56:55.810Z,61.64
2023-03-04T03:59:22.151Z,61.42
2023-03-04T04:01:48.527Z,62.84
2023-03-04T04:04:14.913Z,62.53
2023-03-04T04:06:41.272Z,62.17
2023-03-04T04:09:07.616Z,62.19
2023-03-04T04:11:34.005Z,61.32
2023-03-04T04:14:00.386Z,61.44
2023-03-04T04:16:26.803Z,62.14
2023-03-04T04:18:53.214Z,61.77
2023-03-04T04:21:19.577Z,61.86
2023-03-04T04:23:45.952Z,61.94
2023-03-04T04:26:12.363Z,61.01
2023-03-04T04:28:38.770Z,59.32
2023-03-04T04:31:05.244Z,58.95
2023-03-04T04:33:31.619Z,60.84
2023-03-04T04:35:57.996Z,59.19
2023-03-04T04:38:24.352Z,60.26
2023-03-04T04:40:50.708Z,60.97
2023-03-04T04:43:17.068Z,60.81
2023-03-04T04:45:43.473Z,59.41
2023-03-04T04:48:09.911Z,59.87
2023-03-04T04:50:36.262Z,60.13
2023-03-04T04:53:02.658Z,60.08
2023-03-04T04:55:29.023Z,59.52
2023-03-04T04:57:55.413Z,60.25
2023-03-04T05:00:21.782Z,60.37
2023-03-04T05:02:48.178Z,60.40
2023-03-04T05:05:14.582Z,59.84
2023-03-04T05:07:40.955Z,59.53
2023-03-04T05:10:07.396Z,59.47
2023-03-04T05:12:33.776Z,58.64
2023-03-04T05:15:00.142Z,59.05
2023-03-04T05:17:26.499Z,60.25
2023-03-04T05:19:52.854Z,60.06
2023-03-04T05:22:19.202Z,58.67
2023-03-04T05:24:45.561Z,57.99
2023-03-04T05:27:11.949Z,58.33
2023-03-04T05:29:38.300Z,58.36
2023-03-04T05:32:04.684Z,59.79
2023-03-04T05:34:31.122Z,59.68
2023-03-04T05:36:57.530Z,56.98
2023-03-04T05:39:23.907Z,56.76
2023-03-04T05:41:50.299Z,57.72
2023-03-04T05:44:16.663Z,58.75
2023-03-04T05:46:43.090Z,58.52
2023-03-04T05:49:09.488Z,59.57
2023-03-04T05:51:35.885Z,58.44
2023-03-04T05:54:02.261Z,58.05
2023-03-04T05:56:28.612Z,58.83
2023-03-04T05:58:54.957Z,58.34
2023-03-04T06:01:21.306Z,58.21
2023-03-04T06:03:47.753Z,58.15
2023-03-04T06:06:14.176Z,58.69
2023-03-04T06:08:40.584Z,59.65
2023-03-04T06:11:06.939Z,59.62
2023-03-04T06:13:33.297Z,59.38
2023-03-04T06:15:59.672Z,58.02
2023-03-04T06:18:26.095Z,57.07
2023-03-04T06:20:52.506Z,56.19
2023-03-04T06:23:18.864Z,57.42
2023-03-04T06:25:45.211Z,57.11
2023-03-04T06:28:11.554Z,56.44
2023-03-04T06:30:37.922Z,56.84
2023-03-04T06:33:04.342Z,56.21
2023-03-04T06:35:30.732Z,58.11
2023-03-04T06:37:57.153Z,55.47
2023-03-04T06:40:23.557Z,54.95
2023-03-04T06:42:49.973Z,58.17
2023-03-04T06:45:16.336Z,54.08
2023-03-04T06:47:42.732Z,57.16
2023-03-04T06:50:09.086Z,54.89
2023-03-04T06:52:35.464Z,54.93
2023-03-04T06:55:01.817Z,54.58
2023-03-04T06:57:28.232Z,53.66
2023-03-04T06:59:54.601Z,54.10
2023-03-04T07:02:20.975Z,53.23
2023-03-04T07:04:47.321Z,55.47
2023-03-04T07:07:13.721Z,59.65
2023-03-04T07:09:40.115Z,55.85
2023-03-04T07:12:06.471Z,54.83
2023-03-04T07:14:32.841Z,56.08
2023-03-04T07:16:59.195Z,55.52
2023-03-04T07:19:25.565Z,54.20
2023-03-04T07:21:51.912Z,53.39
2023-03-04T07:24:18.315Z,53.78
2023-03-04T07:26:44.711Z,53.43
2023-03-04T07:29:11.131Z,54.67
2023-03-04T07:31:37.572Z,54.90
2023-03-04T07:34:03.972Z,53.35
2023-03-04T07:36:30.329Z,53.97
2023-03-04T07:38:56.690Z,53.37
2023-03-04T07:41:23.102Z,53.99
2023-03-04T07:43:49.500Z,53.79
2023-03-04T07:46:15.921Z,53.26
2023-03-04T07:48:42.270Z,53.40
2023-03-04T07:51:08.645Z,53.75
2023-03-04T07:53:35.106Z,59.73
2023-03-04T07:56:02.729Z,61.02
2023-03-04T07:58:29.199Z,63.09
2023-03-04T08:00:55.545Z,63.55
2023-03-04T08:03:21.910Z,62.59
2023-03-04T08:05:48.296Z,60.62
2023-03-04T08:08:16.401Z,60.54
2023-03-04T08:10:43.757Z,61.83
2023-03-04T08:13:10.145Z,65.13
2023-03-04T08:15:36.560Z,66.59
2023-03-04T08:18:02.973Z,65.07
2023-03-04T08:20:29.367Z,65.56
2023-03-04T08:22:55.767Z,64.68
2023-03-04T08:25:22.120Z,65.79
2023-03-04T08:27:48.507Z,67.36
2023-03-04T08:30:14.902Z,66.56
2023-03-04T08:32:41.355Z,66.38
2023-03-04T08:35:07.817Z,66.55
2023-03-04T08:37:34.230Z,66.07
2023-03-04T08:40:00.725Z,65.82
2023-03-04T08:42:27.098Z,65.75
2023-03-04T08:44:53.502Z,64.76
2023-03-04T08:47:19.909Z,63.95
2023-03-04T08:49:46.304Z,63.99
2023-03-04T08:52:12.702Z,62.49
2023-03-04T08:54:39.103Z,59.83
2023-03-04T08:57:05.460Z,57.17
2023-03-04T08:59:31.845Z,54.61
2023-03-04T09:01:58.275Z,52.06
2023-03-04T09:04:24.697Z,55.98
2023-03-04T09:06:52.873Z,55.25
2023-03-04T09:09:20.318Z,54.10
2023-03-04T09:11:46.779Z,55.34
2023-03-04T09:14:13.164Z,54.76
2023-03-04T09:16:39.593Z,55.01
2023-03-04T09:19:05.967Z,54.21
2023-03-04T09:21:32.367Z,53.69
2023-03-04T09:23:58.762Z,55.21
2023-03-04T09:26:25.176Z,51.66
2023-03-04T09:28:51.584Z,52.41
2023-03-04T09:31:18.014Z,54.46
2023-03-04T09:33:44.432Z,54.28
2023-03-04T09:36:10.842Z,55.41
2023-03-04T09:38:37.234Z,52.53
2023-03-04T09:41:03.601Z,51.93
2023-03-04T09:43:30.091Z,50.33
2023-03-04T09:45:56.511Z,50.93
2023-03-04T09:48:22.903Z,50.65
2023-03-04T09:50:49.262Z,50.72
2023-03-04T09:53:15.660Z,51.71
2023-03-04T09:55:42.028Z,52.04
2023-03-04T09:58:08.418Z,51.60
2023-03-04T10:00:35.962Z,51.28
2023-03-04T10:03:02.337Z,51.75
2023-03-04T10:05:28.725Z,51.15
2023-03-04T10:07:55.093Z,51.26
2023-03-04T10:10:21.560Z,50.59
2023-03-04T10:12:48.081Z,50.84
2023-03-04T10:15:14.483Z,51.24
2023-03-04T10:17:40.885Z,51.30
2023-03-04T10:20:07.292Z,51.68
2023-03-04T10:22:33.741Z,52.21
2023-03-04T10:25:00.160Z,51.03
2023-03-04T10:27:26.583Z,51.22
2023-03-04T10:29:52.943Z,51.09
2023-03-04T10:32:19.466Z,51.91
2023-03-04T10:34:45.890Z,52.52
2023-03-04T10:37:12.384Z,51.76
2023-03-04T10:39:38.884Z,52.37
2023-03-04T10:42:05.408Z,51.31
2023-03-04T10:44:31.860Z,51.61
2023-03-04T10:46:58.259Z,53.61
2023-03-04T10:49:24.622Z,53.71
2023-03-04T10:51:50.979Z,52.33
2023-03-04T10:54:17.330Z,53.79
2023-03-04T10:56:43.692Z,53.76
2023-03-04T10:59:10.118Z,53.35
2023-03-04T11:01:36.481Z,54.50
2023-03-04T11:04:02.914Z,53.77
2023-03-04T11:06:29.302Z,53.19
2023-03-04T11:08:55.702Z,54.29
2023-03-04T11:11:22.061Z,54.88
2023-03-04T11:13:48.464Z,54.13
2023-03-04T11:16:14.875Z,53.25
2023-03-04T11:18:41.265Z,53.28
2023-03-04T11:21:07.689Z,52.98
2023-03-04T11:23:34.052Z,51.38
2023-03-04T11:26:00.455Z,49.50
2023-03-04T11:28:26.880Z,51.36
2023-03-04T11:30:53.311Z,50.42
2023-03-04T11:33:19.707Z,51.26
2023-03-04T11:35:46.158Z,50.43
2023-03-04T11:38:12.536Z,51.92
2023-03-04T11:40:39.002Z,51.28
2023-03-04T11:43:05.441Z,49.39
2023-03-04T11:45:33.835Z,51.17
2023-03-04T11:48:00.447Z,51.77
2023-03-04T11:50:26.811Z,51.40
2023-03-04T11:52:53.366Z,52.09
2023-03-04T11:55:19.795Z,54.00
2023-03-04T11:57:46.373Z,54.29
2023-03-04T12:00:12.736Z,53.30
2023-03-04T12:02:39.135Z,51.50
2023-03-04T12:05:05.503Z,50.92
2023-03-04T12:07:31.917Z,51.36
2023-03-04T12:09:58.284Z,49.60
2023-03-04T12:12:24.700Z,49.76
2023-03-04T12:14:51.103Z,48.75
2023-03-04T12:17:17.491Z,49.28
2023-03-04T12:19:43.851Z,48.09
2023-03-04T12:22:10.194Z,48.30
2023-03-04T12:24:36.563Z,48.30
2023-03-04T12:27:02.932Z,47.91
2023-03-04T12:29:29.346Z,47.81
2023-03-04T12:31:55.785Z,46.23
2023-03-04T12:34:22.209Z,44.78
2023-03-04T12:36:48.611Z,45.04
2023-03-04T12:39:14.967Z,44.18
2023-03-04T12:41:41.369Z,43.29
2023-03-04T12:44:07.836Z,43.77
2023-03-04T12:46:34.237Z,43.82
2023-03-04T12:49:00.678Z,43.43
2023-03-04T12:51:27.076Z,43.22
2023-03-04T12:53:53.507Z,42.22
2023-03-04T12:56:19.929Z,42.67
2023-03-04T12:58:46.296Z,42.31
2023-03-04T13:01:12.683Z,41.78
2023-03-04T13:03:39.102Z,41.25
2023-03-04T13:06:05.494Z,41.02
2023-03-04T13:08:31.852Z,40.92
2023-03-04T13:10:58.361Z,41.54
2023-03-04T13:13:24.787Z,41.11
2023-03-04T13:15:51.210Z,41.36
2023-03-04T13:18:17.639Z,41.70
2023-03-04T13:20:44.034Z,42.52
2023-03-04T13:23:10.421Z,41.69
2023-03-04T13:25:36.800Z,41.63
2023-03-04T13:28:03.203Z,41.91
2023-03-04T13:30:29.587Z,41.13
2023-03-04T13:32:55.959Z,42.86
2023-03-04T13:35:22.332Z,42.45
2023-03-04T13:37:48.748Z,42.18
2023-03-04T13:40:15.192Z,40.94
2023-03-04T13:42:41.578Z,40.18
2023-03-04T13:45:08.015Z,41.71
2023-03-04T13:47:34.436Z,42.07
2023-03-04T13:50:00.798Z,41.29
2023-03-04T13:52:27.197Z,39.52
2023-03-04T13:54:53.618Z,40.50
2023-03-04T13:57:20.033Z,41.01
2023-03-04T13:59:46.409Z,40.24
2023-03-04T14:02:12.809Z,39.78
2023-03-04T14:04:39.224Z,38.28
2023-03-04T14:07:05.575Z,38.34
2023-03-04T14:09:31.929Z,36.78
2023-03-04T14:11:58.321Z,32.29
2023-03-04T14:14:24.835Z,38.68
2023-03-04T14:16:51.258Z,38.28
2023-03-04T14:19:17.632Z,38.77
2023-03-04T14:21:44.027Z,39.23
2023-03-04T14:24:10.419Z,39.19
2023-03-04T14:26:36.787Z,37.88
2023-03-04T14:29:03.130Z,37.08
2023-03-04T14:31:29.589Z,38.15
2023-03-04T14:33:56.009Z,36.99
2023-03-04T14:36:22.397Z,36.30
2023-03-04T14:38:48.817Z,34.21
2023-03-04T14:41:15.187Z,30.44
2023-03-04T14:43:41.587Z,36.50
2023-03-04T14:46:08.002Z,35.68
2023-03-04T14:48:34.473Z,36.93
2023-03-04T14:51:00.882Z,36.88
2023-03-04T14:53:27.286Z,36.27
2023-03-04T14:55:53.682Z,35.63
2023-03-04T14:58:20.090Z,33.32
2023-03-04T15:00:46.496Z,34.16
2023-03-04T15:03:15.322Z,34.89
2023-03-04T15:05:41.934Z,34.85
2023-03-04T15:08:08.292Z,35.14
2023-03-04T15:10:34.655Z,35.51
2023-03-04T15:13:01.036Z,35.28
2023-03-04T15:15:27.543Z,36.09
2023-03-04T15:17:53.895Z,35.18
2023-03-04T15:20:20.274Z,35.06
2023-03-04T15:22:46.631Z,35.78
2023-03-04T15:25:12.988Z,35.81
2023-03-04T15:27:39.336Z,35.79
2023-03-04T15:30:05.716Z,34.97
2023-03-04T15:32:32.142Z,35.38
2023-03-04T15:34:58.595Z,34.04
2023-03-04T15:37:24.988Z,34.68
2023-03-04T15:39:51.332Z,35.12
2023-03-04T15:42:17.730Z,35.50
2023-03-04T15:44:44.127Z,34.87
2023-03-04T15:47:10.476Z,35.38
2023-03-04T15:49:36.817Z,35.52
2023-03-04T15:52:03.190Z,34.85
2023-03-04T15:54:29.576Z,34.29
2023-03-04T15:56:55.916Z,35.46
2023-03-04T15:59:22.330Z,34.30
2023-03-04T16:01:48.728Z,34.58
2023-03-04T16:04:15.147Z,34.99
2023-03-04T16:06:41.548Z,34.00
2023-03-04T16:09:10.303Z,33.77
2023-03-04T16:11:36.930Z,34.51
2023-03-04T16:14:03.307Z,34.31
2023-03-04T16:16:29.656Z,34.62
2023-03-04T16:18:56.008Z,36.40
2023-03-04T16:21:22.374Z,36.65
2023-03-04T16:23:48.768Z,37.56
2023-03-04T16:26:15.140Z,37.59
2023-03-04T16:28:41.496Z,37.79
2023-03-04T16:31:07.874Z,38.20
2023-03-04T16:33:34.280Z,38.08
2023-03-04T16:36:00.760Z,38.52
2023-03-04T16:38:27.141Z,38.71
2023-03-04T16:40:53.535Z,39.66
2023-03-04T16:43:19.933Z,38.14
2023-03-04T16:45:46.359Z,39.79
2023-03-04T16:48:12.780Z,39.48
2023-03-04T16:50:39.204Z,39.05
2023-03-04T16:53:05.626Z,39.00
2023-03-04T16:55:32.022Z,39.32
2023-03-04T16:57:58.397Z,39.50
2023-03-04T17:00:24.797Z,39.20
2023-03-04T17:02:51.230Z,38.80
2023-03-04T17:05:17.610Z,41.21
2023-03-04T17:07:43.996Z,46.34
2023-03-04T17:10:10.393Z,42.03
2023-03-04T17:12:36.798Z,40.38
2023-03-04T17:15:03.151Z,39.00
2023-03-04T17:17:29.538Z,38.73
2023-03-04T17:19:55.901Z,38.25
2023-03-04T17:22:22.268Z,40.56
2023-03-04T17:24:48.634Z,38.91
2023-03-04T17:27:15.017Z,40.19
2023-03-04T17:29:41.422Z,39.42
2023-03-04T17:32:07.873Z,39.02
2023-03-04T17:34:34.248Z,39.86
2023-03-04T17:37:00.594Z,40.21
2023-03-04T17:39:26.982Z,38.62
2023-03-04T17:41:53.415Z,38.42
2023-03-04T17:44:19.821Z,38.32
2023-03-04T17:46:46.205Z,37.74
2023-03-04T17:49:12.624Z,39.85
2023-03-04T17:51:38.971Z,39.96
2023-03-04T17:54:05.325Z,39.06
2023-03-04T17:56:31.684Z,37.42
2023-03-04T17:58:58.076Z,39.06
2023-03-04T18:01:24.492Z,38.91
2023-03-04T18:03:50.890Z,39.31
2023-03-04T18:06:17.281Z,39.67
2023-03-04T18:08:43.648Z,39.56
2023-03-04T18:11:10.049Z,39.70
2023-03-04T18:13:36.409Z,39.83
2023-03-04T18:16:02.847Z,40.68
2023-03-04T18:18:29.285Z,41.32
2023-03-04T18:20:55.837Z,41.40
2023-03-04T18:23:22.238Z,42.39
2023-03-04T18:25:48.636Z,42.65
2023-03-04T18:28:15.035Z,42.81
2023-03-04T18:30:41.434Z,43.08
2023-03-04T18:33:07.825Z,78.86
2023-03-04T18:35:34.311Z,169.55
2023-03-04T18:38:00.713Z,58.97
2023-03-04T18:40:27.186Z,41.40
2023-03-04T18:42:53.548Z,41.17
2023-03-04T18:45:19.904Z,39.22
2023-03-04T18:47:46.290Z,37.94
2023-03-04T18:50:12.685Z,35.28
2023-03-04T18:52:39.058Z,35.86
2023-03-04T18:55:05.470Z,35.58
2023-03-04T18:57:31.896Z,33.82
2023-03-04T18:59:58.294Z,33.46
2023-03-04T19:02:24.772Z,32.57
2023-03-04T19:04:51.184Z,33.41
2023-03-04T19:07:17.556Z,32.37
2023-03-04T19:09:43.951Z,32.42
2023-03-04T19:12:10.318Z,34.94
2023-03-04T19:14:36.702Z,34.52
2023-03-04T19:17:03.070Z,34.22
2023-03-04T19:19:29.460Z,33.23
2023-03-04T19:21:55.868Z,34.26
2023-03-04T19:24:22.220Z,36.13
2023-03-04T19:26:48.614Z,37.59
2023-03-04T19:29:15.000Z,38.93
2023-03-04T19:31:41.684Z,37.06
2023-03-04T19:34:08.063Z,38.15
2023-03-04T19:36:34.475Z,40.47
2023-03-04T19:39:00.849Z,39.17
2023-03-04T19:41:27.240Z,36.05
2023-03-04T19:43:53.632Z,35.95
2023-03-04T19:46:20.019Z,34.23
2023-03-04T19:48:46.447Z,35.14
2023-03-04T19:51:12.809Z,34.92
2023-03-04T19:53:39.209Z,34.77
2023-03-04T19:56:05.581Z,34.88
2023-03-04T19:58:31.932Z,35.60
2023-03-04T20:00:58.305Z,35.01
2023-03-04T20:03:24.658Z,35.55
2023-03-04T20:05:51.054Z,34.09
2023-03-04T20:08:17.422Z,33.66
2023-03-04T20:10:43.818Z,32.90
2023-03-04T20:13:10.237Z,33.33
2023-03-04T20:15:36.607Z,32.26
2023-03-04T20:18:02.971Z,30.93
2023-03-04T20:20:29.352Z,30.98
2023-03-04T20:22:55.697Z,30.97
2023-03-04T20:25:22.032Z,30.49
2023-03-04T20:27:48.379Z,30.32
2023-03-04T20:30:14.849Z,30.59
2023-03-04T20:32:41.228Z,30.09
2023-03-04T20:35:07.575Z,29.94
2023-03-04T20:37:33.960Z,30.31
2023-03-04T20:40:00.330Z,29.61
2023-03-04T20:42:26.674Z,30.01
2023-03-04T20:44:53.074Z,30.86
2023-03-04T20:47:19.478Z,31.09
2023-03-04T20:49:45.884Z,30.67
2023-03-04T20:52:12.239Z,30.46
2023-03-04T20:54:38.636Z,31.20
2023-03-04T20:57:05.035Z,29.96
2023-03-04T20:59:31.375Z,28.70
2023-03-04T21:01:57.803Z,29.18
2023-03-04T21:04:24.183Z,30.13
2023-03-04T21:06:50.536Z,30.54
2023-03-04T21:09:16.895Z,30.86
2023-03-04T21:11:43.240Z,31.51
2023-03-04T21:14:09.628Z,31.20
2023-03-04T21:16:36.024Z,31.14
2023-03-04T21:19:02.391Z,30.27
2023-03-04T21:21:28.757Z,30.19
2023-03-04T21:23:55.169Z,29.49
2023-03-04T21:26:21.554Z,30.02
2023-03-04T21:28:47.957Z,28.72
2023-03-04T21:31:14.426Z,29.21
2023-03-04T21:33:40.853Z,29.41
2023-03-04T21:36:07.264Z,29.47
2023-03-04T21:38:33.658Z,28.92
2023-03-04T21:41:00.026Z,29.32
2023-03-04T21:43:26.373Z,29.10
2023-03-04T21:45:52.768Z,30.01
2023-03-04T21:48:19.143Z,29.18
2023-03-04T21:50:45.689Z,28.51
2023-03-04T21:53:12.115Z,28.19
2023-03-04T21:55:38.516Z,27.61
2023-03-04T21:58:04.875Z,27.28
2023-03-04T22:00:31.447Z,26.87
2023-03-04T22:02:57.844Z,26.97
2023-03-04T22:05:24.188Z,26.92
2023-03-04T22:07:50.574Z,26.91
2023-03-04T22:10:16.932Z,26.55
2023-03-04T22:12:43.332Z,26.30
2023-03-04T22:15:09.764Z,26.51
2023-03-04T22:17:36.152Z,25.96
2023-03-04T22:20:02.555Z,25.83
2023-03-04T22:22:28.923Z,25.48
2023-03-04T22:24:55.272Z,26.67
2023-03-04T22:27:21.663Z,26.03
2023-03-04T22:29:48.022Z,25.89
2023-03-04T22:32:14.462Z,25.79
2023-03-04T22:34:40.868Z,25.83
2023-03-04T22:37:07.259Z,25.49
2023-03-04T22:39:33.661Z,25.71
2023-03-04T22:42:00.018Z,25.89
2023-03-04T22:44:26.372Z,26.67
2023-03-04T22:46:52.720Z,26.71
2023-03-04T22:49:19.141Z,25.66
2023-03-04T22:51:45.557Z,26.35
2023-03-04T22:54:11.903Z,27.32
2023-03-04T22:56:38.254Z,26.88
2023-03-04T22:59:04.613Z,25.94
2023-03-04T23:01:31.018Z,26.54
2023-03-04T23:03:57.434Z,27.49
2023-03-04T23:06:23.831Z,27.28
2023-03-04T23:08:50.283Z,26.22
2023-03-04T23:11:16.647Z,27.17
2023-03-04T23:13:43.071Z,27.38
2023-03-04T23:16:09.610Z,27.02
2023-03-04T23:18:36.112Z,26.49
2023-03-04T23:21:02.513Z,26.32
2023-03-04T23:23:28.913Z,27.12
2023-03-04T23:25:55.283Z,26.91
2023-03-04T23:28:21.630Z,27.35
2023-03-04T23:30:48.042Z,26.54
2023-03-04T23:33:14.433Z,27.77
2023-03-04T23:35:40.930Z,27.40
2023-03-04T23:38:07.367Z,26.97
2023-03-04T23:40:33.719Z,27.48
2023-03-04T23:43:00.108Z,27.42
2023-03-04T23:45:26.469Z,28.20
2023-03-04T23:47:52.817Z,27.79
2023-03-04T23:50:19.160Z,27.69
2023-03-04T23:52:45.513Z,27.54
2023-03-04T23:55:11.859Z,27.85
2023-03-04T23:57:38.233Z,27.46
